createdAt,value
2023-05-02T00:00:22.070Z,8.13
2023-05-02T00:00:45.638Z,6.07
2023-05-02T00:01:08.406Z,6.15
2023-05-02T00:01:31.749Z,6.68
2023-05-02T00:01:54.611Z,7.82
2023-05-02T00:02:18.134Z,7.13
2023-05-02T00:02:41.093Z,6.30
2023-05-02T00:03:04.953Z,5.93
2023-05-02T00:03:28.174Z,5.82
2023-05-02T00:03:51.726Z,6.13
2023-05-02T00:04:14.807Z,5.30
2023-05-02T00:04:37.786Z,7.10
2023-05-02T00:05:01.315Z,6.57
2023-05-02T00:05:24.283Z,6.07
2023-05-02T00:05:48.553Z,7.40
2023-05-02T00:06:12.394Z,6.57
2023-05-02T00:06:35.636Z,6.43
2023-05-02T00:06:58.492Z,7.30
2023-05-02T00:07:21.779Z,6.53
2023-05-02T00:07:44.579Z,7.43
2023-05-02T00:08:07.447Z,7.70
2023-05-02T00:08:33.329Z,5.57
2023-05-02T00:08:56.591Z,6.38
2023-05-02T00:09:19.555Z,6.35
2023-05-02T00:09:42.423Z,6.13
2023-05-02T00:10:06.278Z,8.07
2023-05-02T00:10:29.164Z,6.90
2023-05-02T00:10:52.041Z,6.65
2023-05-02T00:11:14.891Z,7.65
2023-05-02T00:11:37.745Z,7.18
2023-05-02T00:12:01.181Z,5.50
2023-05-02T00:12:24.062Z,5.20
2023-05-02T00:12:46.855Z,5.45
2023-05-02T00:13:09.730Z,9.00
2023-05-02T00:13:32.526Z,6.45
2023-05-02T00:13:55.306Z,5.43
2023-05-02T00:14:18.260Z,7.32
2023-05-02T00:14:41.211Z,7.05
2023-05-02T00:15:04.353Z,6.70
2023-05-02T00:15:27.906Z,6.78
2023-05-02T00:15:50.978Z,6.88
2023-05-02T00:16:13.648Z,6.18
2023-05-02T00:16:36.497Z,7.30
2023-05-02T00:17:02.189Z,6.75
2023-05-02T00:17:25.622Z,5.57
2023-05-02T00:17:50.685Z,5.45
2023-05-02T00:18:13.521Z,6.22
2023-05-02T00:18:36.445Z,5.93
2023-05-02T00:18:59.380Z,6.70
2023-05-02T00:19:22.268Z,6.93
2023-05-02T00:19:45.154Z,6.15
2023-05-02T00:20:09.738Z,6.32
2023-05-02T00:20:32.534Z,7.75
2023-05-02T00:20:57.585Z,7.65
2023-05-02T00:21:20.510Z,5.57
2023-05-02T00:21:43.220Z,7.15
2023-05-02T00:22:05.994Z,6.75
2023-05-02T00:22:28.944Z,7.05
2023-05-02T00:22:51.721Z,7.95
2023-05-02T00:23:14.423Z,6.05
2023-05-02T00:23:37.140Z,5.75
2023-05-02T00:24:00.328Z,5.70
2023-05-02T00:24:23.491Z,6.22
2023-05-02T00:24:49.505Z,5.25
2023-05-02T00:25:16.382Z,6.93
2023-05-02T00:25:45.807Z,6.07
2023-05-02T00:26:09.468Z,7.38
2023-05-02T00:26:32.312Z,9.23
2023-05-02T00:26:55.236Z,6.03
2023-05-02T00:27:19.318Z,7.97
2023-05-02T00:27:42.085Z,6.53
2023-05-02T00:28:05.131Z,6.03
2023-05-02T00:28:27.993Z,6.82
2023-05-02T00:28:50.771Z,8.13
2023-05-02T00:29:13.585Z,7.00
2023-05-02T00:29:36.861Z,7.28
2023-05-02T00:30:02.691Z,8.15
2023-05-02T00:30:25.786Z,8.60
2023-05-02T00:30:48.709Z,6.78
2023-05-02T00:31:11.929Z,7.32
2023-05-02T00:31:36.023Z,6.43
2023-05-02T00:31:58.881Z,6.22
2023-05-02T00:32:21.752Z,6.30
2023-05-02T00:32:44.821Z,6.93
2023-05-02T00:33:07.680Z,7.07
2023-05-02T00:33:30.452Z,5.53
2023-05-02T00:33:56.412Z,6.55
2023-05-02T00:34:19.150Z,5.97
2023-05-02T00:34:42.040Z,5.70
2023-05-02T00:35:06.020Z,6.97
2023-05-02T00:35:28.834Z,7.57
2023-05-02T00:35:51.601Z,6.35
2023-05-02T00:36:16.504Z,5.75
2023-05-02T00:36:39.346Z,7.70
2023-05-02T00:37:02.125Z,6.32
2023-05-02T00:37:27.222Z,6.00
2023-05-02T00:37:50.067Z,6.05
2023-05-02T00:38:12.867Z,6.95
2023-05-02T00:38:36.055Z,7.03
2023-05-02T00:39:02.036Z,6.03
2023-05-02T00:39:24.975Z,6.05
2023-05-02T00:39:47.816Z,6.10
2023-05-02T00:40:13.887Z,5.75
2023-05-02T00:40:46.143Z,6.68
2023-05-02T00:41:08.843Z,7.10
2023-05-02T00:41:31.598Z,7.07
2023-05-02T00:41:57.977Z,8.18
2023-05-02T00:42:20.954Z,6.65
2023-05-02T00:42:43.942Z,5.47
2023-05-02T00:43:06.790Z,5.72
2023-05-02T00:43:31.689Z,5.97
2023-05-02T00:43:54.475Z,5.30
2023-05-02T00:44:17.475Z,5.32
2023-05-02T00:44:40.837Z,5.57
2023-05-02T00:45:04.890Z,6.95
2023-05-02T00:45:27.776Z,7.63
2023-05-02T00:45:50.921Z,6.80
2023-05-02T00:46:13.909Z,5.78
2023-05-02T00:46:39.897Z,5.13
2023-05-02T00:47:02.755Z,6.07
2023-05-02T00:47:25.655Z,6.18
2023-05-02T00:47:48.497Z,6.20
2023-05-02T00:48:11.758Z,8.38
2023-05-02T00:48:35.091Z,5.50
2023-05-02T00:48:57.846Z,6.38
2023-05-02T00:49:20.655Z,7.95
2023-05-02T00:49:43.519Z,6.30
2023-05-02T00:50:11.140Z,6.80
2023-05-02T00:50:34.455Z,7.10
2023-05-02T00:50:57.815Z,6.60
2023-05-02T00:51:22.455Z,6.70
2023-05-02T00:51:45.294Z,5.95
2023-05-02T00:52:08.649Z,6.25
2023-05-02T00:52:31.450Z,8.23
2023-05-02T00:52:55.022Z,6.47
2023-05-02T00:53:17.910Z,5.55
2023-05-02T00:53:40.801Z,5.72
2023-05-02T00:54:03.738Z,6.10
2023-05-02T00:54:26.513Z,6.47
2023-05-02T00:54:49.294Z,5.70
2023-05-02T00:55:12.394Z,6.80
2023-05-02T00:55:35.239Z,7.63
2023-05-02T00:55:58.565Z,5.68
2023-05-02T00:56:21.830Z,6.57
2023-05-02T00:56:44.774Z,5.38
2023-05-02T00:57:07.681Z,5.88
2023-05-02T00:57:30.490Z,5.32
2023-05-02T00:57:53.293Z,5.13
2023-05-02T00:58:18.135Z,6.53
2023-05-02T00:58:41.488Z,5.30
2023-05-02T00:59:04.784Z,5.72
2023-05-02T00:59:27.845Z,6.47
2023-05-02T00:59:50.804Z,6.25
2023-05-02T01:00:14.379Z,6.78
2023-05-02T01:00:43.443Z,5.65
2023-05-02T01:01:22.396Z,5.07
2023-05-02T01:01:52.807Z,5.82
2023-05-02T01:02:25.706Z,5.97
2023-05-02T01:02:51.441Z,5.88
2023-05-02T01:03:20.885Z,8.20
2023-05-02T01:03:50.290Z,6.13
2023-05-02T01:04:22.368Z,6.55
2023-05-02T01:05:00.526Z,6.15
2023-05-02T01:05:25.922Z,5.53
2023-05-02T01:05:53.694Z,7.32
2023-05-02T01:06:25.082Z,5.55
2023-05-02T01:06:53.583Z,6.28
2023-05-02T01:07:28.174Z,6.07
2023-05-02T01:08:10.428Z,7.15
2023-05-02T01:08:36.336Z,7.13
2023-05-02T01:09:03.519Z,6.10
2023-05-02T01:09:34.906Z,6.65
2023-05-02T01:10:02.590Z,7.65
2023-05-02T01:10:30.957Z,6.07
2023-05-02T01:10:57.032Z,6.05
2023-05-02T01:11:26.493Z,8.40
2023-05-02T01:11:52.658Z,6.80
2023-05-02T01:12:20.426Z,6.20
2023-05-02T01:12:44.853Z,7.13
2023-05-02T01:13:10.288Z,7.07
2023-05-02T01:13:34.523Z,7.13
2023-05-02T01:13:57.370Z,5.93
2023-05-02T01:14:20.673Z,6.13
2023-05-02T01:14:44.267Z,5.78
2023-05-02T01:15:10.627Z,5.68
2023-05-02T01:15:34.022Z,5.88
2023-05-02T01:15:57.130Z,6.70
2023-05-02T01:16:20.458Z,6.63
2023-05-02T01:16:44.118Z,6.50
2023-05-02T01:17:08.422Z,6.47
2023-05-02T01:17:33.039Z,7.25
2023-05-02T01:17:56.737Z,6.50
2023-05-02T01:18:21.462Z,5.90
2023-05-02T01:18:44.350Z,6.20
2023-05-02T01:19:07.213Z,6.90
2023-05-02T01:19:35.135Z,6.20
2023-05-02T01:19:59.141Z,5.57
2023-05-02T01:20:24.106Z,5.38
2023-05-02T01:20:47.322Z,7.10
2023-05-02T01:21:10.937Z,7.03
2023-05-02T01:21:35.234Z,5.93
2023-05-02T01:21:58.134Z,5.30
2023-05-02T01:22:20.934Z,5.80
2023-05-02T01:22:44.041Z,5.72
2023-05-02T01:23:11.703Z,7.53
2023-05-02T01:23:46.832Z,6.53
2023-05-02T01:24:12.884Z,5.57
2023-05-02T01:24:40.684Z,5.10
2023-05-02T01:25:09.835Z,8.93
2023-05-02T01:25:37.948Z,7.45
2023-05-02T01:26:10.654Z,5.80
2023-05-02T01:26:36.818Z,6.90
2023-05-02T01:27:05.698Z,5.43
2023-05-02T01:27:35.267Z,5.05
2023-05-02T01:28:04.641Z,5.63
2023-05-02T01:28:32.556Z,6.03
2023-05-02T01:29:00.298Z,6.15
2023-05-02T01:29:23.431Z,5.10
2023-05-02T01:29:46.429Z,5.38
2023-05-02T01:30:11.872Z,5.20
2023-05-02T01:30:35.433Z,6.95
2023-05-02T01:30:58.317Z,7.70
2023-05-02T01:31:21.317Z,7.78
2023-05-02T01:31:46.825Z,8.32
2023-05-02T01:32:09.625Z,7.20
2023-05-02T01:32:33.638Z,6.30
2023-05-02T01:32:58.135Z,5.30
2023-05-02T01:33:20.862Z,5.22
2023-05-02T01:33:43.625Z,5.93
2023-05-02T01:34:10.434Z,6.40
2023-05-02T01:34:33.186Z,5.43
2023-05-02T01:34:56.606Z,5.38
2023-05-02T01:35:19.749Z,5.30
2023-05-02T01:35:43.232Z,5.70
2023-05-02T01:36:06.597Z,6.80
2023-05-02T01:36:31.332Z,6.85
2023-05-02T01:36:54.157Z,6.43
2023-05-02T01:37:16.982Z,5.78
2023-05-02T01:37:39.726Z,6.72
2023-05-02T01:38:03.536Z,6.55
2023-05-02T01:38:26.472Z,8.95
2023-05-02T01:38:49.784Z,6.30
2023-05-02T01:39:14.436Z,6.18
2023-05-02T01:39:37.176Z,6.70
2023-05-02T01:40:00.238Z,5.38
2023-05-02T01:40:23.332Z,6.20
2023-05-02T01:40:47.124Z,6.32
2023-05-02T01:41:09.942Z,7.20
2023-05-02T01:41:32.758Z,5.47
2023-05-02T01:41:59.964Z,6.28
2023-05-02T01:42:22.981Z,6.53
2023-05-02T01:42:46.939Z,5.88
2023-05-02T01:43:09.703Z,6.68
2023-05-02T01:43:33.636Z,5.95
2023-05-02T01:43:58.148Z,6.40
2023-05-02T01:44:23.244Z,6.22
2023-05-02T01:44:45.934Z,5.95
2023-05-02T01:45:10.585Z,5.88
2023-05-02T01:45:33.640Z,5.82
2023-05-02T01:45:56.393Z,5.40
2023-05-02T01:46:19.753Z,6.65
2023-05-02T01:46:43.196Z,6.28
2023-05-02T01:47:07.153Z,7.38
2023-05-02T01:47:30.471Z,5.45
2023-05-02T01:47:53.553Z,6.05
2023-05-02T01:48:17.944Z,7.60
2023-05-02T01:48:41.571Z,5.85
2023-05-02T01:49:06.442Z,5.95
2023-05-02T01:49:29.229Z,6.60
2023-05-02T01:49:52.213Z,5.60
2023-05-02T01:50:19.653Z,6.53
2023-05-02T01:50:42.413Z,5.82
2023-05-02T01:51:05.324Z,5.93
2023-05-02T01:51:30.756Z,6.25
2023-05-02T01:51:53.603Z,5.22
2023-05-02T01:52:16.540Z,7.57
2023-05-02T01:52:39.410Z,6.97
2023-05-02T01:53:03.296Z,7.28
2023-05-02T01:53:26.219Z,6.28
2023-05-02T01:53:50.291Z,6.93
2023-05-02T01:54:14.309Z,7.03
2023-05-02T01:54:37.301Z,7.57
2023-05-02T01:55:02.717Z,6.15
2023-05-02T01:55:25.567Z,5.95
2023-05-02T01:55:49.060Z,5.65
2023-05-02T01:56:14.271Z,7.22
2023-05-02T01:56:38.426Z,7.40
2023-05-02T01:57:02.639Z,8.30
2023-05-02T01:57:25.442Z,7.00
2023-05-02T01:57:48.524Z,6.88
2023-05-02T01:58:11.310Z,6.15
2023-05-02T01:58:34.191Z,6.22
2023-05-02T01:58:57.676Z,6.50
2023-05-02T01:59:23.007Z,6.50
2023-05-02T01:59:46.442Z,7.38
2023-05-02T02:00:10.361Z,7.63
2023-05-02T02:00:33.162Z,8.98
2023-05-02T02:00:56.599Z,6.97
2023-05-02T02:01:19.658Z,5.93
2023-05-02T02:01:43.775Z,5.43
2023-05-02T02:02:06.832Z,5.47
2023-05-02T02:02:29.690Z,6.20
2023-05-02T02:02:52.530Z,7.15
2023-05-02T02:03:15.753Z,7.15
2023-05-02T02:03:38.672Z,5.75
2023-05-02T02:04:01.578Z,6.40
2023-05-02T02:04:24.765Z,5.45
2023-05-02T02:04:47.981Z,5.75
2023-05-02T02:05:11.251Z,7.47
2023-05-02T02:05:34.858Z,6.90
2023-05-02T02:05:57.954Z,5.37
2023-05-02T02:06:20.834Z,6.38
2023-05-02T02:06:46.340Z,6.32
2023-05-02T02:07:10.208Z,6.85
2023-05-02T02:07:32.992Z,6.85
2023-05-02T02:07:55.842Z,9.20
2023-05-02T02:08:18.653Z,6.38
2023-05-02T02:08:41.695Z,5.90
2023-05-02T02:09:04.543Z,5.88
2023-05-02T02:09:27.310Z,6.63
2023-05-02T02:09:50.077Z,6.18
2023-05-02T02:10:12.852Z,5.60
2023-05-02T02:10:37.006Z,5.93
2023-05-02T02:11:01.351Z,5.65
2023-05-02T02:11:27.091Z,5.57
2023-05-02T02:11:52.776Z,8.38
2023-05-02T02:12:17.780Z,6.10
2023-05-02T02:12:42.662Z,5.53
2023-05-02T02:13:07.941Z,6.25
2023-05-02T02:13:34.314Z,6.57
2023-05-02T02:14:02.028Z,6.00
2023-05-02T02:14:28.035Z,5.45
2023-05-02T02:14:56.127Z,5.63
2023-05-02T02:15:20.538Z,5.68
2023-05-02T02:15:43.897Z,5.60
2023-05-02T02:16:07.798Z,6.88
2023-05-02T02:16:32.841Z,5.72
2023-05-02T02:16:56.314Z,6.20
2023-05-02T02:17:24.655Z,5.65
2023-05-02T02:17:50.359Z,6.60
2023-05-02T02:18:15.020Z,6.65
2023-05-02T02:18:38.146Z,6.60
2023-05-02T02:19:05.520Z,5.88
2023-05-02T02:19:28.359Z,6.50
2023-05-02T02:19:54.356Z,7.57
2023-05-02T02:20:17.264Z,8.30
2023-05-02T02:20:40.054Z,6.97
2023-05-02T02:21:02.889Z,7.70
2023-05-02T02:21:29.157Z,6.88
2023-05-02T02:21:51.945Z,7.10
2023-05-02T02:22:15.080Z,6.97
2023-05-02T02:22:41.706Z,7.30
2023-05-02T02:23:07.096Z,5.95
2023-05-02T02:23:29.941Z,5.72
2023-05-02T02:23:54.905Z,5.10
2023-05-02T02:24:18.135Z,5.72
2023-05-02T02:24:41.103Z,5.90
2023-05-02T02:25:04.545Z,7.25
2023-05-02T02:25:27.383Z,6.72
2023-05-02T02:25:50.946Z,6.53
2023-05-02T02:26:13.875Z,7.50
2023-05-02T02:26:36.771Z,7.88
2023-05-02T02:27:02.783Z,5.65
2023-05-02T02:27:25.965Z,6.22
2023-05-02T02:27:48.847Z,7.80
2023-05-02T02:28:11.544Z,6.70
2023-05-02T02:28:35.100Z,7.95
2023-05-02T02:28:58.484Z,5.43
2023-05-02T02:29:21.363Z,5.35
2023-05-02T02:29:45.748Z,6.10
2023-05-02T02:30:09.319Z,7.10
2023-05-02T02:30:32.284Z,8.20
2023-05-02T02:30:55.285Z,6.57
2023-05-02T02:31:18.216Z,6.27
2023-05-02T02:31:41.405Z,6.10
2023-05-02T02:32:04.337Z,6.78
2023-05-02T02:32:27.219Z,6.40
2023-05-02T02:32:50.261Z,8.65
2023-05-02T02:33:13.232Z,6.60
2023-05-02T02:33:36.197Z,6.65
2023-05-02T02:33:59.497Z,6.97
2023-05-02T02:34:22.361Z,5.93
2023-05-02T02:34:45.330Z,5.47
2023-05-02T02:35:09.214Z,6.68
2023-05-02T02:35:35.854Z,6.43
2023-05-02T02:36:02.829Z,5.80
2023-05-02T02:36:28.586Z,6.85
2023-05-02T02:36:55.466Z,6.13
2023-05-02T02:37:19.532Z,6.25
2023-05-02T02:37:45.999Z,5.35
2023-05-02T02:38:14.517Z,5.47
2023-05-02T02:38:41.205Z,6.05
2023-05-02T02:39:18.256Z,7.18
2023-05-02T02:39:45.997Z,7.53
2023-05-02T02:40:13.368Z,6.25
2023-05-02T02:40:42.309Z,6.97
2023-05-02T02:41:10.599Z,6.35
2023-05-02T02:41:38.182Z,6.35
2023-05-02T02:42:04.376Z,7.22
2023-05-02T02:42:31.594Z,7.22
2023-05-02T02:43:00.158Z,6.70
2023-05-02T02:43:27.785Z,5.53
2023-05-02T02:43:56.362Z,5.80
2023-05-02T02:44:28.348Z,5.60
2023-05-02T02:44:56.908Z,6.80
2023-05-02T02:45:30.388Z,6.53
2023-05-02T02:45:57.966Z,6.63
2023-05-02T02:46:28.326Z,5.63
2023-05-02T02:46:55.328Z,8.95
2023-05-02T02:47:22.718Z,5.68
2023-05-02T02:47:48.938Z,5.35
2023-05-02T02:48:16.618Z,5.63
2023-05-02T02:48:43.660Z,7.53
2023-05-02T02:49:17.771Z,5.93
2023-05-02T02:49:48.685Z,9.57
2023-05-02T02:50:16.240Z,6.10
2023-05-02T02:50:43.053Z,6.20
2023-05-02T02:51:12.885Z,5.57
2023-05-02T02:51:38.818Z,5.60
2023-05-02T02:52:05.861Z,7.22
2023-05-02T02:52:37.286Z,6.60
2023-05-02T02:53:02.858Z,7.72
2023-05-02T02:53:28.122Z,6.15
2023-05-02T02:53:55.927Z,6.03
2023-05-02T02:54:27.130Z,6.43
2023-05-02T02:54:53.865Z,6.88
2023-05-02T02:55:20.423Z,6.10
2023-05-02T02:55:45.870Z,7.28
2023-05-02T02:56:14.219Z,6.60
2023-05-02T02:56:38.286Z,6.57
2023-05-02T02:57:06.567Z,7.03
2023-05-02T02:57:33.982Z,9.50
2023-05-02T02:58:00.719Z,7.90
2023-05-02T02:58:29.554Z,6.70
2023-05-02T02:58:55.562Z,8.50
2023-05-02T02:59:20.886Z,8.93
2023-05-02T02:59:52.075Z,11.18
2023-05-02T03:00:17.973Z,10.15
2023-05-02T03:00:40.751Z,10.45
2023-05-02T03:01:05.186Z,11.50
2023-05-02T03:01:28.227Z,9.60
2023-05-02T03:01:57.743Z,10.63
2023-05-02T03:02:20.818Z,11.85
2023-05-02T03:02:43.742Z,10.07
2023-05-02T03:03:07.103Z,9.70
2023-05-02T03:03:30.037Z,10.68
2023-05-02T03:03:52.957Z,10.63
2023-05-02T03:04:16.663Z,11.77
2023-05-02T03:04:42.181Z,11.30
2023-05-02T03:05:06.101Z,9.50
2023-05-02T03:05:28.892Z,8.70
2023-05-02T03:05:51.728Z,8.50
2023-05-02T03:06:14.585Z,8.05
2023-05-02T03:06:37.571Z,7.88
2023-05-02T03:07:03.474Z,9.40
2023-05-02T03:07:29.145Z,8.95
2023-05-02T03:07:52.073Z,10.48
2023-05-02T03:08:15.126Z,9.52
2023-05-02T03:08:41.521Z,9.55
2023-05-02T03:09:04.416Z,11.07
2023-05-02T03:09:30.475Z,9.10
2023-05-02T03:09:53.451Z,9.20
2023-05-02T03:10:16.829Z,8.15
2023-05-02T03:10:39.697Z,7.55
2023-05-02T03:11:02.433Z,8.90
2023-05-02T03:11:26.321Z,9.55
2023-05-02T03:11:50.055Z,10.10
2023-05-02T03:12:13.145Z,7.93
2023-05-02T03:12:36.336Z,8.07
2023-05-02T03:13:01.817Z,7.60
2023-05-02T03:13:24.832Z,7.13
2023-05-02T03:13:47.987Z,7.07
2023-05-02T03:14:11.022Z,7.80
2023-05-02T03:14:33.975Z,8.25
2023-05-02T03:14:58.407Z,8.68
2023-05-02T03:15:31.931Z,9.52
2023-05-02T03:16:36.923Z,8.95
2023-05-02T03:16:59.957Z,7.35
2023-05-02T03:17:24.930Z,8.18
2023-05-02T03:17:49.235Z,9.30
2023-05-02T03:18:12.077Z,8.70
2023-05-02T03:18:35.481Z,8.82
2023-05-02T03:18:58.450Z,7.00
2023-05-02T03:19:23.693Z,7.35
2023-05-02T03:19:47.434Z,6.97
2023-05-02T03:20:11.086Z,7.55
2023-05-02T03:20:33.916Z,8.02
2023-05-02T03:20:57.169Z,8.55
2023-05-02T03:21:19.927Z,9.45
2023-05-02T03:21:43.588Z,8.48
2023-05-02T03:22:06.456Z,8.35
2023-05-02T03:22:29.322Z,8.57
2023-05-02T03:22:52.667Z,8.90
2023-05-02T03:23:15.454Z,10.70
2023-05-02T03:23:38.285Z,7.57
2023-05-02T03:24:01.262Z,7.60
2023-05-02T03:24:24.123Z,8.20
2023-05-02T03:24:46.882Z,7.78
2023-05-02T03:25:10.342Z,7.57
2023-05-02T03:25:33.288Z,7.75
2023-05-02T03:25:56.175Z,9.88
2023-05-02T03:26:19.008Z,9.18
2023-05-02T03:26:41.898Z,9.27
2023-05-02T03:27:06.953Z,8.88
2023-05-02T03:27:29.765Z,8.23
2023-05-02T03:27:55.482Z,7.75
2023-05-02T03:28:18.293Z,9.10
2023-05-02T03:28:41.193Z,8.52
2023-05-02T03:29:04.124Z,8.18
2023-05-02T03:29:30.168Z,7.30
2023-05-02T03:29:53.060Z,8.23
2023-05-02T03:30:15.925Z,8.15
2023-05-02T03:30:42.539Z,8.93
2023-05-02T03:31:05.507Z,10.15
2023-05-02T03:31:28.487Z,8.95
2023-05-02T03:31:51.327Z,8.77
2023-05-02T03:32:14.223Z,9.02
2023-05-02T03:32:37.109Z,7.82
2023-05-02T03:33:02.417Z,7.38
2023-05-02T03:33:26.023Z,8.52
2023-05-02T03:33:48.910Z,7.50
2023-05-02T03:34:11.731Z,9.77
2023-05-02T03:34:34.498Z,8.63
2023-05-02T03:35:00.445Z,8.55
2023-05-02T03:35:23.332Z,8.52
2023-05-02T03:35:46.199Z,9.27
2023-05-02T03:36:09.100Z,7.57
2023-05-02T03:36:31.898Z,9.20
2023-05-02T03:36:54.661Z,8.05
2023-05-02T03:37:17.455Z,7.28
2023-05-02T03:37:40.380Z,7.47
2023-05-02T03:38:03.119Z,8.80
2023-05-02T03:38:26.432Z,8.32
2023-05-02T03:38:49.200Z,9.10
2023-05-02T03:39:12.560Z,7.28
2023-05-02T03:39:35.535Z,7.70
2023-05-02T03:39:58.685Z,7.13
2023-05-02T03:40:22.099Z,7.47
2023-05-02T03:40:45.109Z,8.40
2023-05-02T03:41:08.018Z,8.23
2023-05-02T03:41:30.791Z,8.52
2023-05-02T03:41:53.612Z,8.15
2023-05-02T03:42:16.500Z,8.43
2023-05-02T03:42:42.579Z,8.63
2023-05-02T03:43:05.743Z,8.73
2023-05-02T03:43:28.575Z,8.27
2023-05-02T03:43:51.344Z,9.75
2023-05-02T03:44:14.434Z,8.82
2023-05-02T03:44:37.242Z,9.50
2023-05-02T03:45:00.012Z,8.23
2023-05-02T03:45:22.809Z,9.82
2023-05-02T03:45:48.676Z,9.75
2023-05-02T03:46:12.103Z,7.72
2023-05-02T03:46:34.861Z,7.82
2023-05-02T03:46:57.652Z,9.52
2023-05-02T03:47:20.898Z,10.75
2023-05-02T03:47:43.994Z,8.00
2023-05-02T03:48:07.187Z,8.05
2023-05-02T03:48:30.082Z,8.23
2023-05-02T03:48:53.337Z,8.05
2023-05-02T03:49:16.212Z,9.23
2023-05-02T03:49:38.979Z,9.75
2023-05-02T03:50:03.457Z,9.45
2023-05-02T03:50:26.453Z,8.57
2023-05-02T03:50:50.055Z,8.45
2023-05-02T03:51:13.575Z,9.68
2023-05-02T03:51:36.446Z,8.80
2023-05-02T03:51:59.417Z,8.15
2023-05-02T03:52:22.098Z,7.80
2023-05-02T03:52:44.851Z,7.75
2023-05-02T03:53:08.478Z,7.78
2023-05-02T03:53:31.819Z,7.82
2023-05-02T03:53:55.102Z,8.00
2023-05-02T03:54:18.438Z,8.15
2023-05-02T03:54:43.773Z,9.00
2023-05-02T03:55:08.081Z,8.38
2023-05-02T03:55:30.856Z,8.98
2023-05-02T03:55:53.787Z,8.77
2023-05-02T03:56:20.365Z,7.20
2023-05-02T03:56:44.266Z,7.80
2023-05-02T03:57:08.358Z,7.70
2023-05-02T03:57:31.312Z,7.43
2023-05-02T03:57:54.214Z,9.50
2023-05-02T03:58:17.091Z,10.75
2023-05-02T03:58:39.916Z,9.25
2023-05-02T03:59:02.927Z,7.93
2023-05-02T03:59:25.939Z,9.50
2023-05-02T03:59:48.736Z,8.95
2023-05-02T04:00:12.637Z,7.78
2023-05-02T04:00:35.370Z,8.35
2023-05-02T04:00:59.636Z,7.93
2023-05-02T04:01:22.457Z,8.00
2023-05-02T04:01:45.242Z,8.00
2023-05-02T04:02:08.616Z,8.00
2023-05-02T04:02:31.605Z,7.47
2023-05-02T04:02:54.451Z,9.13
2023-05-02T04:03:17.338Z,8.07
2023-05-02T04:03:40.573Z,8.60
2023-05-02T04:04:05.729Z,8.82
2023-05-02T04:04:28.730Z,8.38
2023-05-02T04:04:52.035Z,8.43
2023-05-02T04:05:15.134Z,8.15
2023-05-02T04:05:37.982Z,9.43
2023-05-02T04:06:00.908Z,10.68
2023-05-02T04:06:23.889Z,10.05
2023-05-02T04:06:46.730Z,7.88
2023-05-02T04:07:15.773Z,8.02
2023-05-02T04:07:38.586Z,7.68
2023-05-02T04:08:01.915Z,9.13
2023-05-02T04:08:24.799Z,8.00
2023-05-02T04:08:47.601Z,8.02
2023-05-02T04:09:10.470Z,8.65
2023-05-02T04:09:33.287Z,8.13
2023-05-02T04:09:56.142Z,10.88
2023-05-02T04:10:18.903Z,8.65
2023-05-02T04:10:41.754Z,7.70
2023-05-02T04:11:04.605Z,7.53
2023-05-02T04:11:27.475Z,7.40
2023-05-02T04:11:52.825Z,8.23
2023-05-02T04:12:16.342Z,7.45
2023-05-02T04:12:39.119Z,9.80
2023-05-02T04:13:03.212Z,8.90
2023-05-02T04:13:26.096Z,9.75
2023-05-02T04:13:49.660Z,9.20
2023-05-02T04:14:13.012Z,8.52
2023-05-02T04:14:35.754Z,7.60
2023-05-02T04:14:58.558Z,8.10
2023-05-02T04:15:21.419Z,7.93
2023-05-02T04:15:46.241Z,9.82
2023-05-02T04:16:11.150Z,9.75
2023-05-02T04:16:34.074Z,8.47
2023-05-02T04:16:56.937Z,8.10
2023-05-02T04:17:19.895Z,9.98
2023-05-02T04:17:42.764Z,9.27
2023-05-02T04:18:05.628Z,8.05
2023-05-02T04:18:28.457Z,10.00
2023-05-02T04:18:51.330Z,8.25
2023-05-02T04:19:14.168Z,8.07
2023-05-02T04:19:36.956Z,8.15
2023-05-02T04:20:01.587Z,7.63
2023-05-02T04:20:26.476Z,7.72
2023-05-02T04:20:49.183Z,8.70
2023-05-02T04:21:12.017Z,8.85
2023-05-02T04:21:37.510Z,8.13
2023-05-02T04:22:00.243Z,8.20
2023-05-02T04:22:22.990Z,8.60
2023-05-02T04:22:48.098Z,8.40
2023-05-02T04:23:10.739Z,9.60
2023-05-02T04:23:33.902Z,9.35
2023-05-02T04:23:56.990Z,10.15
2023-05-02T04:24:19.695Z,8.07
2023-05-02T04:24:42.466Z,7.95
2023-05-02T04:25:05.858Z,8.25
2023-05-02T04:25:28.917Z,9.35
2023-05-02T04:25:53.142Z,8.93
2023-05-02T04:26:16.589Z,8.32
2023-05-02T04:26:39.250Z,9.10
2023-05-02T04:27:01.994Z,7.97
2023-05-02T04:27:27.158Z,8.10
2023-05-02T04:27:49.976Z,9.70
2023-05-02T04:28:12.801Z,9.60
2023-05-02T04:28:38.154Z,9.75
2023-05-02T04:29:01.649Z,8.40
2023-05-02T04:29:24.449Z,7.90
2023-05-02T04:29:48.760Z,8.25
2023-05-02T04:30:12.200Z,9.45
2023-05-02T04:30:35.088Z,10.38
2023-05-02T04:30:59.422Z,7.65
2023-05-02T04:31:23.822Z,8.25
2023-05-02T04:31:46.660Z,9.52
2023-05-02T04:32:09.588Z,8.32
2023-05-02T04:32:32.366Z,8.32
2023-05-02T04:32:55.230Z,8.45
2023-05-02T04:33:18.663Z,8.48
2023-05-02T04:33:41.498Z,7.53
2023-05-02T04:34:04.651Z,7.75
2023-05-02T04:34:28.716Z,12.38
2023-05-02T04:34:51.549Z,8.82
2023-05-02T04:35:15.747Z,6.80
2023-05-02T04:35:40.689Z,8.75
2023-05-02T04:36:04.031Z,7.60
2023-05-02T04:36:28.477Z,7.70
2023-05-02T04:36:51.342Z,8.52
2023-05-02T04:37:14.117Z,7.43
2023-05-02T04:37:36.816Z,8.35
2023-05-02T04:37:59.717Z,7.47
2023-05-02T04:38:22.614Z,7.53
2023-05-02T04:38:47.935Z,7.28
2023-05-02T04:39:10.853Z,7.57
2023-05-02T04:39:33.637Z,7.95
2023-05-02T04:39:56.407Z,8.23
2023-05-02T04:40:19.287Z,7.38
2023-05-02T04:40:42.086Z,7.47
2023-05-02T04:41:08.668Z,8.45
2023-05-02T04:41:32.730Z,6.68
2023-05-02T04:41:55.450Z,6.57
2023-05-02T04:42:20.726Z,8.43
2023-05-02T04:42:43.555Z,7.97
2023-05-02T04:43:06.315Z,6.13
2023-05-02T04:43:29.091Z,7.35
2023-05-02T04:43:51.915Z,7.18
2023-05-02T04:44:14.756Z,6.70
2023-05-02T04:44:37.457Z,6.75
2023-05-02T04:45:00.339Z,7.35
2023-05-02T04:45:23.104Z,6.55
2023-05-02T04:45:46.473Z,6.55
2023-05-02T04:46:09.372Z,10.25
2023-05-02T04:46:33.766Z,7.78
2023-05-02T04:46:57.722Z,6.78
2023-05-02T04:47:22.694Z,6.85
2023-05-02T04:47:45.510Z,6.53
2023-05-02T04:48:08.408Z,7.90
2023-05-02T04:48:31.265Z,6.75
2023-05-02T04:48:54.377Z,7.15
2023-05-02T04:49:19.563Z,7.03
2023-05-02T04:49:43.218Z,7.47
2023-05-02T04:50:07.547Z,7.55
2023-05-02T04:50:30.276Z,8.23
2023-05-02T04:50:54.025Z,8.02
2023-05-02T04:51:17.149Z,7.07
2023-05-02T04:51:40.326Z,6.30
2023-05-02T04:52:03.262Z,6.88
2023-05-02T04:52:26.448Z,7.47
2023-05-02T04:52:49.511Z,7.03
2023-05-02T04:53:12.273Z,6.43
2023-05-02T04:53:35.061Z,7.03
2023-05-02T04:53:58.012Z,6.72
2023-05-02T04:54:20.992Z,8.35
2023-05-02T04:54:43.707Z,8.73
2023-05-02T04:55:07.646Z,6.82
2023-05-02T04:55:30.831Z,6.85
2023-05-02T04:55:53.587Z,7.05
2023-05-02T04:56:16.461Z,6.60
2023-05-02T04:56:40.395Z,6.35
2023-05-02T04:57:03.913Z,7.97
2023-05-02T04:57:26.896Z,6.88
2023-05-02T04:57:49.647Z,7.45
2023-05-02T04:58:12.980Z,6.78
2023-05-02T04:58:35.917Z,6.32
2023-05-02T04:58:58.801Z,7.00
2023-05-02T04:59:21.628Z,7.50
2023-05-02T04:59:45.526Z,6.30
2023-05-02T05:00:10.327Z,6.53
2023-05-02T05:00:33.489Z,7.07
2023-05-02T05:00:56.567Z,7.25
2023-05-02T05:01:19.417Z,6.57
2023-05-02T05:01:44.224Z,6.22
2023-05-02T05:02:08.420Z,6.93
2023-05-02T05:02:31.743Z,7.13
2023-05-02T05:02:54.945Z,6.53
2023-05-02T05:03:18.043Z,7.25
2023-05-02T05:03:40.911Z,6.85
2023-05-02T05:04:04.079Z,6.68
2023-05-02T05:04:27.273Z,7.28
2023-05-02T05:04:50.133Z,7.13
2023-05-02T05:05:13.020Z,8.30
2023-05-02T05:05:35.855Z,8.13
2023-05-02T05:05:58.834Z,6.70
2023-05-02T05:06:22.688Z,6.38
2023-05-02T05:06:47.589Z,7.47
2023-05-02T05:07:10.597Z,8.32
2023-05-02T05:07:33.423Z,7.20
2023-05-02T05:07:56.308Z,7.32
2023-05-02T05:08:19.128Z,7.15
2023-05-02T05:08:41.860Z,7.25
2023-05-02T05:09:04.781Z,7.45
2023-05-02T05:09:27.560Z,7.75
2023-05-02T05:09:51.287Z,7.07
2023-05-02T05:10:16.487Z,7.00
2023-05-02T05:10:40.870Z,8.07
2023-05-02T05:11:05.487Z,7.18
2023-05-02T05:11:28.294Z,7.88
2023-05-02T05:11:51.147Z,7.88
2023-05-02T05:12:16.238Z,7.25
2023-05-02T05:12:38.975Z,8.15
2023-05-02T05:13:01.782Z,9.18
2023-05-02T05:13:24.698Z,8.30
2023-05-02T05:13:47.435Z,6.78
2023-05-02T05:14:10.248Z,7.70
2023-05-02T05:14:32.988Z,6.70
2023-05-02T05:14:55.852Z,7.43
2023-05-02T05:15:20.853Z,7.38
2023-05-02T05:15:45.014Z,7.35
2023-05-02T05:16:08.369Z,7.63
2023-05-02T05:16:32.269Z,8.43
2023-05-02T05:16:56.664Z,9.07
2023-05-02T05:17:19.398Z,7.03
2023-05-02T05:17:42.473Z,7.10
2023-05-02T05:18:05.774Z,6.75
2023-05-02T05:18:28.682Z,7.10
2023-05-02T05:18:53.963Z,7.72
2023-05-02T05:19:16.686Z,7.50
2023-05-02T05:19:39.399Z,9.77
2023-05-02T05:20:02.359Z,7.95
2023-05-02T05:20:25.290Z,7.20
2023-05-02T05:20:48.123Z,6.80
2023-05-02T05:21:14.086Z,6.78
2023-05-02T05:21:37.172Z,7.03